Time;durP1;ratioP1;P1;durP2;ratioP2;P2;SDS_P1;SDS_P2;PMS_P1;PMS_P2;Temp;Humidity;BMP_temperature;BMP_pressure;BME280_temperature;BME280_humidity;BME280_pressure;Samples;Min_cycle;Max_cycle;Signal;HPM_P1;HPM_P2
2024/02/08 00:01:41;;;;;;;2.08;1.80;;;1.00;1.00;;;0.42;100.00;99860.66;6190617;23;20170;-67
2024/02/08 00:04:11;;;;;;;1.35;0.80;;;1.00;1.00;;;0.39;100.00;99852.97;6190606;23;20208;-66
2024/02/08 00:06:40;;;;;;;1.05;0.70;;;0.90;1.00;;;0.33;100.00;99864.28;6189448;23;20150;-64
2024/02/08 00:09:09;;;;;;;1.00;0.80;;;0.90;1.00;;;0.25;100.00;99866.91;6185530;23;20181;-66
2024/02/08 00:11:37;;;;;;;0.90;0.80;;;0.80;1.00;;;0.26;100.00;99865.91;6185952;23;20633;-67
2024/02/08 00:14:08;;;;;;;1.65;1.45;;;0.80;1.00;;;0.25;100.00;99874.88;6185977;23;20176;-65
2024/02/08 00:16:37;;;;;;;1.38;1.08;;;0.80;1.00;;;0.17;100.00;99863.38;6185947;23;20233;-65
2024/02/08 00:19:06;;;;;;;1.60;1.50;;;0.70;1.00;;;0.21;100.00;99865.56;6186014;23;20228;-66
2024/02/08 00:21:37;;;;;;;1.15;1.05;;;0.70;1.00;;;0.75;100.00;99861.56;6185279;23;20244;-65
2024/02/08 00:24:06;;;;;;;0.80;0.50;;;0.90;1.00;;;0.55;100.00;99854.84;6185138;23;20172;-65
2024/02/08 00:26:35;;;;;;;0.90;0.68;;;0.90;1.00;;;0.55;100.00;99857.53;6158486;23;20248;-63
2024/02/08 00:29:04;;;;;;;1.38;1.00;;;0.90;1.00;;;0.86;100.00;99849.75;6185071;23;20182;-65
2024/02/08 00:31:33;;;;;;;3.45;1.42;;;1.10;1.00;;;0.88;100.00;99853.06;6185299;23;20162;-65
2024/02/08 00:34:02;;;;;;;1.17;0.63;;;1.10;1.00;;;0.68;100.00;99855.19;6185139;23;20174;-64
2024/02/08 00:36:31;;;;;;;0.90;0.73;;;1.10;1.00;;;0.58;100.00;99854.50;6185240;23;20233;-66
2024/02/08 00:39:05;;;;;;;1.15;1.05;;;1.00;1.00;;;0.60;100.00;99854.38;6185720;23;20177;-63
2024/02/08 00:41:34;;;;;;;0.80;0.50;;;1.00;1.00;;;0.71;100.00;99859.38;6185550;23;20618;-65
2024/02/08 00:44:03;;;;;;;1.23;1.13;;;1.10;1.00;;;0.58;100.00;99845.72;6185480;23;20231;-66
2024/02/08 00:46:33;;;;;;;0.80;0.50;;;1.00;1.00;;;0.44;100.00;99860.47;6185314;23;20189;-66
2024/02/08 00:49:02;;;;;;;0.93;0.70;;;1.00;1.00;;;0.30;100.00;99864.59;6185040;23;20216;-65
2024/02/08 00:51:31;;;;;;;6.90;1.15;;;0.80;1.00;;;0.17;100.00;99852.75;6184870;23;20244;-64
2024/02/08 00:53:59;;;;;;;1.25;1.15;;;0.70;1.00;;;0.43;100.00;99859.66;6185241;23;20606;-67
2024/02/08 00:56:28;;;;;;;0.80;0.50;;;0.80;1.00;;;0.58;100.00;99859.03;6185356;23;20165;-67
2024/02/08 00:58:57;;;;;;;3.45;0.68;;;0.90;1.00;;;0.34;100.00;99857.94;6185459;23;20197;-66
2024/02/08 01:01:30;;;;;;;1.00;0.70;;;0.80;1.00;;;0.23;100.00;99860.09;6185347;23;20161;-65
2024/02/08 01:04:01;;;;;;;1.23;0.60;;;0.70;1.00;;;0.54;100.00;99855.84;6184893;23;20177;-67
2024/02/08 01:06:30;;;;;;;1.17;0.95;;;0.80;1.00;;;0.88;100.00;99859.22;6186729;23;20173;-66
2024/02/08 01:08:59;;;;;;;1.00;0.70;;;1.00;1.00;;;0.67;100.00;99850.06;6186803;23;20201;-67
2024/02/08 01:11:27;;;;;;;0.90;0.75;;;1.00;1.00;;;0.55;100.00;99854.03;6187191;23;20169;-67
2024/02/08 01:13:56;;;;;;;0.80;0.50;;;0.90;1.00;;;0.34;100.00;99847.31;6187204;23;20149;-68
2024/02/08 01:16:43;;;;;;;2.55;2.45;;;0.90;1.00;;;0.34;100.00;99851.78;6187391;23;20244;-67
2024/02/08 01:19:14;;;;;;;1.42;1.33;;;0.80;1.00;;;0.24;100.00;99849.28;6187129;23;20181;-65
2024/02/08 01:21:43;;;;;;;1.27;1.17;;;0.80;1.00;;;0.14;100.00;99843.28;6187474;23;20208;-67
2024/02/08 01:24:16;;;;;;;0.80;0.50;;;0.70;1.00;;;0.58;100.00;99845.72;6187421;23;20614;-67
2024/02/08 01:26:45;;;;;;;1.23;0.98;;;0.80;1.00;;;0.39;100.00;99850.31;6186581;23;20174;-67
2024/02/08 01:29:14;;;;;;;1.27;0.90;;;0.80;1.00;;;0.35;100.00;99854.31;6186692;23;20646;-68
2024/02/08 01:31:43;;;;;;;1.02;0.70;;;0.80;1.00;;;0.55;100.00;99851.34;6160477;23;20520;-67
2024/02/08 01:34:13;;;;;;;1.30;0.98;;;0.80;1.00;;;0.83;100.00;99858.06;6186767;23;20200;-68
2024/02/08 01:36:42;;;;;;;0.90;0.70;;;1.00;1.00;;;0.83;100.00;99847.41;6186911;23;20253;-66
2024/02/08 01:39:13;;;;;;;0.80;0.50;;;1.10;1.00;;;0.97;100.00;99861.91;6186725;23;20181;-66
2024/02/08 01:41:44;;;;;;;1.88;1.73;;;1.20;1.00;;;0.91;100.00;99862.56;6186419;23;20169;-67
2024/02/08 01:44:13;;;;;;;1.25;0.80;;;1.20;1.00;;;0.84;100.00;99857.91;6186625;23;20622;-65
2024/02/08 01:46:43;;;;;;;1.67;1.38;;;1.20;1.00;;;0.71;100.00;99851.41;6186860;23;20197;-65
2024/02/08 01:49:20;;;;;;;1.90;1.00;;;1.10;1.00;;;0.63;100.00;99843.41;6186128;23;20185;-65
2024/02/08 01:51:59;;;;;;;1.10;0.80;;;1.00;1.00;;;0.74;100.00;99838.56;6186380;23;20161;-67
2024/02/08 01:54:29;;;;;;;2.00;1.10;;;1.10;1.00;;;0.66;100.00;99835.91;6186820;23;20157;-66
2024/02/08 01:57:03;;;;;;;0.80;0.50;;;1.10;1.00;;;0.69;100.00;99837.41;6186648;23;20154;-67
2024/02/08 01:59:33;;;;;;;1.35;1.20;;;1.10;1.00;;;0.83;100.00;99834.09;6186108;23;20179;-65
2024/02/08 02:02:07;;;;;;;1.00;0.80;;;1.10;1.00;;;0.76;100.00;99839.25;6186511;23;20158;-66
2024/02/08 02:04:39;;;;;;;1.63;1.23;;;1.10;1.00;;;0.76;100.00;99825.09;6187097;23;20153;-67
2024/02/08 02:07:09;;;;;;;0.80;0.50;;;1.10;1.00;;;0.84;100.00;99820.63;6186155;23;20154;-66
2024/02/08 02:09:38;;;;;;;2.00;1.05;;;1.20;1.00;;;0.79;100.00;99822.09;6186132;23;20204;-67
2024/02/08 02:12:15;;;;;;;1.88;1.50;;;1.10;1.00;;;0.89;100.00;99820.13;6186461;23;20153;-66
2024/02/08 02:14:45;;;;;;;2.47;1.25;;;1.20;1.00;;;0.78;100.00;99817.78;6186275;23;20149;-66
2024/02/08 02:17:18;;;;;;;0.80;0.60;;;1.20;1.00;;;0.99;100.00;99812.78;6185910;23;20150;-68
2024/02/08 02:19:49;;;;;;;3.03;2.17;;;1.20;1.00;;;0.93;100.00;99808.13;6186420;23;20537;-66
2024/02/08 02:22:21;;;;;;;1.15;1.00;;;1.20;1.00;;;0.93;100.00;99802.78;6186824;23;20180;-66
2024/02/08 02:24:50;;;;;;;3.72;1.30;;;1.30;1.00;;;1.09;100.00;99812.63;6187314;23;20158;-67
2024/02/08 02:27:19;;;;;;;1.05;0.60;;;1.30;1.00;;;1.06;100.00;99805.81;6186338;23;20189;-66
2024/02/08 02:29:52;;;;;;;1.15;1.05;;;1.30;1.00;;;1.05;100.00;99804.13;6186019;23;20150;-66
2024/02/08 02:32:22;;;;;;;1.63;0.82;;;1.30;1.00;;;1.10;100.00;99801.81;6186958;23;20173;-68
2024/02/08 02:34:53;;;;;;;1.45;1.35;;;1.40;1.00;;;1.02;100.00;99798.28;6186999;23;20232;-67
2024/02/08 02:37:23;;;;;;;1.00;0.82;;;1.40;1.00;;;0.98;100.00;99800.47;6186921;23;20154;-67
2024/02/08 02:39:52;;;;;;;1.10;0.77;;;1.30;1.00;;;0.91;100.00;99794.16;6186770;23;20185;-68
2024/02/08 02:42:22;;;;;;;1.73;1.08;;;1.30;1.00;;;0.78;100.00;99793.81;6187557;23;20229;-65
2024/02/08 02:44:51;;;;;;;3.85;3.65;;;1.20;1.00;;;0.84;100.00;99796.66;6186210;23;20152;-66
2024/02/08 02:47:25;;;;;;;2.85;2.65;;;1.20;1.00;;;0.79;100.00;99790.16;6185503;23;20166;-65
2024/02/08 02:49:55;;;;;;;0.90;0.60;;;1.20;1.00;;;0.88;100.00;99789.97;6185669;23;20146;-66
2024/02/08 02:52:26;;;;;;;1.10;0.90;;;1.20;1.00;;;0.86;100.00;99791.16;6186555;23;20154;-66
2024/02/08 02:54:56;;;;;;;0.90;0.50;;;1.20;1.00;;;0.82;100.00;99795.97;6185917;23;20149;-65
2024/02/08 02:57:24;;;;;;;1.55;0.95;;;1.20;1.00;;;0.66;100.00;99795.16;6185962;23;20172;-65
2024/02/08 02:59:55;;;;;;;1.33;0.70;;;1.10;1.00;;;0.66;100.00;99795.16;6185693;23;20160;-66
2024/02/08 03:02:28;;;;;;;1.00;0.60;;;1.00;1.00;;;0.58;100.00;99797.81;6185931;23;20153;-65
2024/02/08 03:04:57;;;;;;;0.80;0.60;;;1.00;1.00;;;0.66;100.00;99800.47;6183974;23;20239;-66
2024/02/08 03:07:28;;;;;;;1.13;0.95;;;1.00;1.00;;;0.68;100.00;99799.28;6185531;23;20181;-67
2024/02/08 03:09:57;;;;;;;0.80;0.60;;;1.00;1.00;;;0.81;100.00;99793.50;6185280;23;20173;-65
2024/02/08 03:12:26;;;;;;;0.90;0.70;;;1.10;1.00;;;0.81;100.00;99794.31;6185436;23;20181;-67
2024/02/08 03:15:00;;;;;;;1.80;1.23;;;1.10;1.00;;;0.81;100.00;99786.34;6185546;23;20165;-65
2024/02/08 03:17:32;;;;;;;2.17;0.82;;;1.10;1.00;;;0.92;100.00;99785.13;6185458;23;20216;-67
2024/02/08 03:20:04;;;;;;;2.35;1.13;;;1.20;1.00;;;0.94;100.00;99783.16;6184905;23;20160;-68
2024/02/08 03:22:35;;;;;;;0.80;0.60;;;1.20;1.00;;;0.98;100.00;99789.81;6185394;23;20225;-66
2024/02/08 03:25:05;;;;;;;1.27;0.75;;;1.30;1.00;;;1.12;100.00;99791.78;6185341;23;20162;-66
2024/02/08 03:27:35;;;;;;;2.85;0.70;;;1.30;1.00;;;1.15;100.00;99791.47;6185333;23;20185;-67
2024/02/08 03:30:04;;;;;;;5.13;0.90;;;1.40;1.00;;;1.13;100.00;99804.13;6185234;23;20154;-66
2024/02/08 03:32:35;;;;;;;0.80;0.55;;;1.40;1.00;;;1.22;100.00;99792.44;6185513;23;20153;-67
2024/02/08 03:35:05;;;;;;;1.52;1.10;;;1.40;1.00;;;1.28;100.00;99783.78;6185008;23;20160;-64
2024/02/08 03:37:35;;;;;;;2.90;0.77;;;1.50;1.00;;;1.33;100.00;99783.28;6185198;23;20578;-67
2024/02/08 03:40:05;;;;;;;0.90;0.60;;;1.50;1.00;;;1.36;100.00;99782.91;6185516;23;20262;-67
2024/02/08 03:42:35;;;;;;;0.90;0.70;;;1.50;1.00;;;1.48;100.00;99786.06;6185593;23;20146;-65
2024/02/08 03:45:07;;;;;;;1.52;1.13;;;1.60;1.00;;;1.57;100.00;99785.03;6185345;23;20176;-65
2024/02/08 03:47:39;;;;;;;0.80;0.50;;;1.60;1.00;;;1.62;100.00;99780.03;6185273;23;20204;-65
2024/02/08 03:50:11;;;;;;;0.80;0.50;;;1.70;99.90;;;1.53;100.00;99779.22;6185526;23;20165;-67
2024/02/08 03:52:41;;;;;;;2.38;1.98;;;1.70;99.90;;;1.51;100.00;99772.38;6185300;23;20212;-64
2024/02/08 03:55:16;;;;;;;4.10;2.40;;;1.70;99.90;;;1.58;100.00;99776.88;6184926;23;20154;-65
2024/02/08 03:57:48;;;;;;;2.97;1.38;;;1.70;99.90;;;1.63;100.00;99784.38;6185333;23;20528;-65
2024/02/08 04:00:27;;;;;;;1.25;0.80;;;1.80;99.90;;;1.74;100.00;99789.34;6185305;23;20156;-66
2024/02/08 04:03:01;;;;;;;1.42;1.33;;;1.90;99.90;;;1.77;100.00;99794.31;6185793;23;20228;-67
2024/02/08 04:05:42;;;;;;;1.40;1.20;;;1.90;99.90;;;1.66;100.00;99784.84;6185661;23;20250;-65
2024/02/08 04:08:52;;;;;;;2.95;1.13;;;1.90;99.90;;;1.76;100.00;99797.97;6186122;23;20251;-66
2024/02/08 04:55:37;;;;;;;0.80;0.50;;;2.20;99.90;;;2.00;100.00;99787.22;6188746;23;20502;-67
2024/02/08 04:58:08;;;;;;;2.65;1.60;;;2.20;99.90;;;1.92;100.00;99784.59;6188199;23;20193;-67
2024/02/08 05:00:57;;;;;;;0.80;0.55;;;2.10;99.90;;;1.97;100.00;99781.41;6188362;23;20165;-67
2024/02/08 05:03:25;;;;;;;1.63;1.52;;;2.10;99.90;;;1.99;100.00;99782.03;6187834;23;20156;-66
2024/02/08 05:05:55;;;;;;;1.10;1.00;;;2.10;99.90;;;1.97;100.00;99776.91;6187565;23;20165;-66
2024/02/08 05:08:24;;;;;;;1.67;1.58;;;2.20;99.90;;;1.94;100.00;99781.72;6185836;23;20181;-66
2024/02/08 05:10:55;;;;;;;1.50;0.88;;;2.10;99.90;;;1.85;100.00;99775.59;6184739;23;20212;-64
2024/02/08 05:13:27;;;;;;;0.80;0.50;;;2.10;99.90;;;1.82;100.00;99773.28;6183619;23;20161;-64
2024/02/08 05:15:56;;;;;;;4.20;1.80;;;2.10;99.90;;;1.88;100.00;99777.94;6184956;23;20160;-67
2024/02/08 05:18:28;;;;;;;1.40;0.60;;;2.10;99.90;;;1.90;100.00;99783.91;6184849;23;20519;-65
2024/02/08 05:20:57;;;;;;;0.90;0.70;;;2.00;99.90;;;1.96;100.00;99775.22;6184953;23;20154;-65
2024/02/08 05:23:27;;;;;;;0.90;0.80;;;2.10;99.90;;;2.01;100.00;99778.19;6185365;23;20224;-67
2024/02/08 05:25:56;;;;;;;4.15;1.90;;;2.10;99.90;;;2.03;100.00;99772.69;6185163;23;20142;-66
2024/02/08 05:28:28;;;;;;;0.95;0.70;;;2.20;99.90;;;1.94;100.00;99774.56;6184988;23;20181;-66
2024/02/08 05:30:56;;;;;;;0.80;0.60;;;2.10;99.90;;;2.01;100.00;99777.38;6185001;23;20150;-65
2024/02/08 05:33:29;;;;;;;2.20;1.38;;;2.10;99.90;;;1.96;100.00;99777.06;6184605;23;20583;-66
2024/02/08 05:35:59;;;;;;;1.65;1.55;;;2.10;99.90;;;1.94;100.00;99777.22;6184920;23;20152;-62
2024/02/08 05:38:37;;;;;;;7.20;2.85;;;2.10;99.90;;;1.97;100.00;99776.91;6184749;23;20189;-63
2024/02/08 05:41:08;;;;;;;0.90;0.80;;;2.10;99.90;;;1.97;100.00;99774.22;6184376;23;20176;-68
2024/02/08 05:43:44;;;;;;;1.05;0.93;;;2.20;99.90;;;1.93;100.00;99786.25;6184379;23;20605;-66
2024/02/08 05:46:19;;;;;;;0.90;0.60;;;2.10;99.90;;;1.85;100.00;99772.09;6184466;23;20590;-65
2024/02/08 05:48:51;;;;;;;5.05;1.85;;;2.00;99.90;;;1.87;100.00;99775.44;6184692;23;20244;-63
2024/02/08 05:51:22;;;;;;;1.08;0.75;;;2.00;99.90;;;1.80;100.00;99779.78;6184246;23;20150;-66
2024/02/08 05:53:53;;;;;;;1.38;0.95;;;2.00;99.90;;;1.88;100.00;99763.75;6184422;23;20273;-63
2024/02/08 05:56:25;;;;;;;0.95;0.73;;;2.00;99.90;;;2.00;100.00;99765.03;6186491;23;20229;-66
2024/02/08 06:00:14;;;;;;;3.83;1.10;;;2.10;99.90;;;1.93;100.00;99764.91;6186018;23;20529;-66
2024/02/08 06:02:46;;;;;;;2.30;1.70;;;2.00;99.90;;;1.97;100.00;99760.06;6186700;23;20157;-66
2024/02/08 06:05:17;;;;;;;1.25;1.15;;;2.10;99.90;;;1.96;100.00;99745.03;6186699;23;20540;-65
2024/02/08 06:07:56;;;;;;;0.90;0.65;;;2.00;99.90;;;1.92;100.00;99746.41;6186058;23;20674;-64
2024/02/08 06:10:42;;;;;;;1.25;0.93;;;2.00;99.90;;;1.88;100.00;99740.59;6185947;23;20623;-65
2024/02/08 06:13:13;;;;;;;21.27;1.95;;;2.00;99.90;;;1.78;100.00;99729.31;6186772;23;20753;-66
2024/02/08 06:15:47;;;;;;;0.90;0.70;;;2.00;99.90;;;1.83;100.00;99729.63;6186131;23;20479;-66
2024/02/08 06:18:25;;;;;;;0.93;0.75;;;2.00;99.90;;;1.82;100.00;99730.63;6185661;23;20192;-66
2024/02/08 06:20:59;;;;;;;2.70;2.53;;;2.00;99.90;;;1.77;100.00;99727.63;6186233;23;20170;-65
2024/02/08 06:23:34;;;;;;;1.33;1.15;;;2.00;99.90;;;1.88;100.00;99734.44;6186233;23;20149;-67
2024/02/08 06:28:53;;;;;;;1.38;0.93;;;2.10;99.90;;;2.05;100.00;99727.97;6185888;23;20232;-64
2024/02/08 06:31:29;;;;;;;1.27;0.80;;;2.20;99.90;;;2.09;100.00;99734.63;6186462;23;20153;-66
2024/02/08 06:34:40;;;;;;;2.13;1.45;;;2.20;99.90;;;2.19;100.00;99743.25;6186268;23;20154;-65
2024/02/08 06:37:15;;;;;;;1.98;1.13;;;2.20;99.90;;;2.15;100.00;99748.09;6186112;23;20511;-66
2024/02/08 06:39:55;;;;;;;3.92;1.40;;;2.30;99.90;;;2.18;100.00;99747.75;6184461;23;20177;-65
2024/02/08 06:42:40;;;;;;;2.15;1.95;;;2.30;99.90;;;2.21;100.00;99743.06;6186151;23;20161;-67
2024/02/08 06:48:14;;;;;;;0.80;0.50;;;2.40;99.90;;;2.33;100.00;99755.81;6159801;23;20216;-66
2024/02/08 07:38:34;;;;;;;0.80;0.60;;;3.00;99.90;;;2.80;100.00;99779.72;6185674;23;20190;-66
2024/02/08 07:41:05;;;;;;;2.08;1.33;;;2.90;99.90;;;2.81;100.00;99775.19;6185678;23;20177;-66
2024/02/08 07:43:35;;;;;;;0.90;0.80;;;2.90;99.90;;;2.85;100.00;99768.47;6185998;23;20189;-65
2024/02/08 07:46:16;;;;;;;1.20;1.10;;;2.90;99.90;;;2.87;100.00;99769.13;6185837;23;20151;-65
2024/02/08 07:48:45;;;;;;;2.00;0.75;;;2.90;99.90;;;2.87;100.00;99769.13;6185667;23;20579;-65
2024/02/08 07:51:15;;;;;;;2.08;1.88;;;2.90;99.90;;;2.85;100.00;99768.47;6185590;23;20213;-65
2024/02/08 07:53:51;;;;;;;1.90;1.33;;;2.90;99.90;;;2.84;100.00;99780.16;6185869;23;20188;-66
2024/02/08 07:56:37;;;;;;;0.95;0.82;;;2.90;99.90;;;3.02;100.00;99773.50;6185815;23;20156;-67
2024/02/08 07:59:15;;;;;;;0.80;0.60;;;3.00;99.90;;;2.99;100.00;99778.38;6159356;23;20194;-66
2024/02/08 08:01:50;;;;;;;1.80;1.50;;;3.00;99.90;;;2.99;100.00;99768.53;6185654;23;20179;-65
2024/02/08 08:07:02;;;;;;;1.65;1.55;;;3.00;99.90;;;2.96;100.00;99752.00;6186319;23;20541;-66
2024/02/08 08:09:31;;;;;;;0.90;0.73;;;3.00;99.90;;;2.99;100.00;99755.16;6186622;23;20245;-66
2024/02/08 08:12:04;;;;;;;1.30;1.15;;;3.00;99.90;;;3.04;100.00;99755.44;6187525;23;20232;-66
2024/02/08 08:17:40;;;;;;;1.25;1.08;;;3.00;99.90;;;2.90;100.00;99742.88;6186608;23;20181;-83
2024/02/08 08:20:50;;;;;;;1.67;1.58;;;3.00;99.90;;;3.13;100.00;99750.84;6139252;23;20194;-83
2024/02/08 08:23:25;;;;;;;3.15;1.38;;;3.00;99.90;;;3.13;100.00;99745.50;6163996;23;20164;-82
2024/02/08 08:26:23;;;;;;;2.25;1.85;;;3.10;99.90;;;3.35;100.00;99759.81;6166409;23;20154;-82
2024/02/08 08:29:02;;;;;;;2.80;2.10;;;3.20;99.90;;;3.35;100.00;99755.28;6139301;23;20201;-82
2024/02/08 08:31:37;;;;;;;2.83;1.77;;;3.30;99.90;;;3.31;100.00;99745.13;6164622;23;20227;-84
2024/02/08 08:37:02;;;;;;;2.88;2.60;;;3.30;99.90;;;3.40;100.00;99738.69;6057181;23;20740;-84
2024/02/08 08:40:20;;;;;;;2.33;1.60;;;3.40;99.90;;;3.46;100.00;99728.09;6164573;23;20218;-82
2024/02/08 08:46:44;;;;;;;1.35;1.23;;;3.40;99.90;;;3.86;100.00;99717.91;6128115;23;20180;-83
2024/02/08 08:49:20;;;;;;;2.22;1.42;;;3.60;99.90;;;3.87;99.30;99723.06;6141052;23;20189;-83
2024/02/08 08:51:58;;;;;;;2.75;1.50;;;3.80;99.90;;;3.78;99.65;99726.84;6166774;23;20158;-83
2024/02/08 08:54:33;;;;;;;1.52;1.10;;;3.70;99.90;;;3.79;99.87;99733.88;6140708;23;20187;-83
2024/02/08 08:57:12;;;;;;;2.95;2.25;;;3.70;99.90;;;4.00;99.45;99745.66;6166606;23;20548;-82
2024/02/08 08:59:42;;;;;;;5.35;2.80;;;3.80;99.90;;;4.01;98.85;99750.84;6167601;23;20182;-83
2024/02/08 09:02:14;;;;;;;4.47;3.58;;;3.90;99.90;;;3.97;99.16;99746.03;6166233;23;20152;-81
2024/02/08 09:04:55;;;;;;;1.35;0.93;;;3.90;99.90;;;3.85;98.80;99737.66;6138882;23;20159;-83
2024/02/08 09:07:30;;;;;;;4.65;2.92;;;3.80;99.90;;;3.99;98.57;99744.00;6166517;23;20147;-83
2024/02/08 09:10:03;;;;;;;1.65;1.33;;;3.80;99.90;;;4.08;98.79;99742.88;6140154;23;20192;-83
2024/02/08 09:12:39;;;;;;;1.08;0.85;;;3.90;99.90;;;4.29;97.54;99745.59;6137964;23;20171;-82
2024/02/08 09:15:26;;;;;;;3.08;1.70;;;4.10;99.90;;;4.29;97.21;99724.16;6139406;23;20167;-82
2024/02/08 09:18:08;;;;;;;2.65;2.45;;;4.10;99.90;;;4.00;97.31;99735.78;6167747;23;20232;-82
2024/02/08 09:20:41;;;;;;;3.25;3.05;;;4.00;99.90;;;4.08;98.67;99732.16;6170837;23;20180;-83
2024/02/08 09:23:16;;;;;;;2.25;2.05;;;4.00;99.90;;;4.26;97.18;99745.97;6177252;23;20195;-82
2024/02/08 09:25:50;;;;;;;2.65;1.95;;;4.20;99.90;;;4.37;96.80;99740.94;6157872;23;20165;-83
2024/02/08 09:31:16;;;;;;;1.77;1.20;;;4.30;99.90;;;4.31;97.28;99733.66;6160546;23;20221;-81
2024/02/08 09:34:00;;;;;;;1.77;1.67;;;4.20;99.90;;;4.32;96.54;99731.81;6185845;23;20199;-82
2024/02/08 09:36:33;;;;;;;3.50;2.15;;;4.20;99.90;;;4.42;96.38;99742.22;6185690;23;20145;-83
2024/02/08 09:39:15;;;;;;;2.90;2.33;;;4.20;99.90;;;4.38;97.28;99742.59;6171550;23;20192;-83
2024/02/08 09:47:25;;;;;;;1.33;1.23;;;4.30;99.90;;;4.55;95.68;99748.53;6172370;23;20514;-84
2024/02/08 09:50:21;;;;;;;2.80;2.60;;;4.40;99.90;;;4.64;95.66;99755.44;6095056;23;20198;-82
2024/02/08 09:52:56;;;;;;;3.25;2.70;;;4.50;99.90;;;4.88;94.88;99759.56;6170659;23;20163;-83
2024/02/08 09:55:35;;;;;;;3.35;3.05;;;4.60;99.90;;;5.12;93.51;99748.44;6171841;23;20149;-82
2024/02/08 09:58:10;;;;;;;1.98;1.77;;;4.80;99.90;;;4.87;93.12;99739.16;6171995;23;20208;-84
2024/02/08 10:00:54;;;;;;;3.70;3.15;;;4.80;99.90;;;4.90;93.85;99743.28;6170929;23;20185;-83
2024/02/08 10:03:36;;;;;;;5.10;1.90;;;4.70;99.90;;;4.86;93.84;99744.69;6171890;23;20233;-82
2024/02/08 10:06:23;;;;;;;2.80;2.60;;;4.70;99.90;;;5.01;94.12;99753.47;6178523;23;20150;-82
2024/02/08 10:12:20;;;;;;;5.22;3.13;;;5.00;99.90;;;5.29;91.02;99740.06;6143233;23;20165;-84
2024/02/08 10:15:39;;;;;;;2.60;1.95;;;5.10;99.90;;;4.96;92.86;99729.09;6076565;23;20188;-82
2024/02/08 10:19:47;;;;;;;4.75;2.58;;;4.90;99.90;;;4.94;93.87;99723.13;6156125;23;20225;-83
2024/02/08 10:22:53;;;;;;;5.00;1.83;;;4.80;99.90;;;4.92;92.89;99714.44;6064635;23;20508;-82
2024/02/08 10:28:23;;;;;;;6.63;2.70;;;4.70;99.90;;;4.91;93.01;99702.88;6120752;23;20158;-82
2024/02/08 10:31:06;;;;;;;3.97;3.00;;;4.70;99.90;;;4.98;91.71;99700.25;6149661;23;20532;-83
2024/02/08 10:33:38;;;;;;;3.63;3.33;;;4.70;99.90;;;4.99;92.36;99693.84;6146029;23;20176;-84
2024/02/08 10:36:18;;;;;;;6.95;2.28;;;4.80;99.90;;;5.06;92.59;99679.50;6140377;23;20155;-82
2024/02/08 10:39:26;;;;;;;3.00;2.45;;;4.80;99.90;;;5.25;90.70;99686.00;6147429;23;20239;-82
2024/02/08 10:42:02;;;;;;;4.32;4.03;;;4.90;99.90;;;5.45;89.74;99683.44;6140741;23;20169;-82
2024/02/08 10:44:34;;;;;;;6.95;2.85;;;5.00;99.90;;;5.52;89.74;99685.09;6138144;23;20206;-82
2024/02/08 10:47:09;;;;;;;2.03;1.67;;;5.20;99.90;;;5.61;87.60;99694.69;6110880;23;20551;-82
2024/02/08 10:49:51;;;;;;;1.75;1.00;;;5.30;99.90;;;5.69;87.41;99686.44;6111279;23;20254;-83
2024/02/08 10:52:33;;;;;;;5.68;3.13;;;5.40;99.90;;;5.72;87.89;99679.84;6135886;23;20155;-82
2024/02/08 10:55:18;;;;;;;5.00;4.05;;;5.50;99.90;;;5.94;86.64;99683.28;6136245;23;20177;-83
2024/02/08 11:03:34;;;;;;;20.80;4.32;;;5.90;99.90;;;6.09;83.99;99670.50;6075569;23;20234;-82
2024/02/08 11:06:26;;;;;;;3.45;3.20;;;5.90;99.90;;;6.26;82.45;99661.03;6153675;23;20161;-82
2024/02/08 11:09:18;;;;;;;2.60;2.40;;;6.10;99.90;;;6.36;82.19;99663.31;6118829;23;20229;-82
2024/02/08 11:12:03;;;;;;;4.90;2.08;;;6.20;99.90;;;6.27;81.83;99661.84;6137305;23;20143;-82
2024/02/08 11:15:53;;;;;;;3.38;3.10;;;6.20;99.90;;;6.24;82.63;99663.09;6138181;23;20246;-82
2024/02/08 11:18:35;;;;;;;2.45;2.25;;;6.10;99.90;;;6.29;83.92;99649.06;6141728;23;20190;-82
2024/02/08 11:21:12;;;;;;;3.22;2.63;;;6.00;99.90;;;6.37;82.45;99657.75;6147666;23;20158;-82
2024/02/08 11:49:31;;;;;;;4.53;2.50;;;6.50;99.90;;;6.57;79.65;99638.94;6093258;23;20168;-83
2024/02/08 11:53:09;;;;;;;2.00;1.50;;;6.30;99.90;;;6.44;80.55;99631.69;6078556;23;20179;-82
2024/02/08 12:07:07;;;;;;;3.40;1.60;;;6.40;99.90;;;6.37;81.16;99620.13;6093074;23;20156;-84
2024/02/08 12:09:41;;;;;;;3.17;2.92;;;6.20;99.90;;;6.83;79.13;99613.91;6090447;23;20188;-85
2024/02/08 12:12:14;;;;;;;4.30;2.20;;;6.50;99.90;;;6.60;78.76;99610.81;6084890;23;20172;-86
2024/02/08 12:17:52;;;;;;;5.57;2.65;;;6.40;99.90;;;6.65;78.52;99608.34;6118504;23;20191;-65
2024/02/08 12:20:24;;;;;;;3.63;2.88;;;6.50;99.90;;;6.74;78.95;99599.84;6098899;23;20156;-67
2024/02/08 12:22:56;;;;;;;3.40;3.10;;;6.50;99.90;;;6.83;79.22;99605.81;6096926;23;20155;-65
2024/02/08 12:25:27;;;;;;;3.08;2.10;;;6.60;99.90;;;6.94;78.49;99599.81;6097136;23;20160;-63
2024/02/08 12:28:04;;;;;;;3.60;2.25;;;6.60;99.90;;;7.00;77.46;99590.91;6096858;23;20660;-67
2024/02/08 12:30:40;;;;;;;3.53;2.65;;;6.70;99.90;;;7.09;76.52;99586.97;6098201;23;20159;-65
2024/02/08 12:33:12;;;;;;;7.35;3.95;;;6.90;99.90;;;7.14;76.01;99584.47;6099308;23;20147;-67
2024/02/08 12:35:43;;;;;;;4.53;2.55;;;7.00;99.90;;;7.21;76.53;99579.06;6100155;23;20274;-66
2024/02/08 12:38:17;;;;;;;3.67;1.85;;;7.10;99.90;;;7.07;76.68;99578.25;6102032;23;20269;-66
2024/02/08 12:40:48;;;;;;;4.90;2.88;;;7.00;99.90;;;7.09;76.97;99568.13;6100939;23;20148;-65
2024/02/08 12:43:19;;;;;;;3.05;2.75;;;7.00;99.90;;;6.62;80.29;99563.91;6100422;23;20493;-66
2024/02/08 12:45:54;;;;;;;5.20;4.47;;;6.60;99.90;;;6.67;79.81;99556.03;6100013;23;20154;-66
2024/02/08 12:48:23;;;;;;;3.33;2.08;;;6.50;99.90;;;7.03;77.45;99552.84;6100575;23;20214;-67
2024/02/08 12:50:54;;;;;;;5.15;2.95;;;6.80;99.90;;;6.73;79.37;99562.44;6101931;23;20148;-68
2024/02/08 12:53:23;;;;;;;4.75;1.20;;;6.60;99.90;;;6.53;78.11;99557.88;6104989;23;20155;-67
2024/02/08 12:55:52;;;;;;;3.83;2.35;;;6.40;99.90;;;6.91;76.10;99557.22;6100594;23;20211;-67
2024/02/08 12:58:23;;;;;;;1.30;1.20;;;6.70;99.90;;;6.88;75.98;99560.31;6097262;23;20506;-67
2024/02/08 13:01:04;;;;;;;4.38;2.47;;;6.70;99.90;;;6.47;76.68;99549.84;6096999;23;20306;-66
2024/02/08 13:03:35;;;;;;;6.60;2.90;;;6.40;99.90;;;6.35;79.02;99555.00;6096959;23;20574;-67
2024/02/08 13:06:12;;;;;;;6.47;1.98;;;6.30;99.90;;;6.26;80.48;99548.19;6096488;23;20156;-66
2024/02/08 13:08:45;;;;;;;3.40;2.85;;;6.10;99.90;;;6.51;79.96;99546.53;6096688;23;20266;-65
2024/02/08 13:11:21;;;;;;;5.20;1.90;;;6.20;99.90;;;6.63;78.49;99546.75;6096954;23;20156;-65
2024/02/08 13:13:50;;;;;;;3.15;2.17;;;6.50;99.90;;;6.48;79.70;99540.75;6098935;23;20528;-66
2024/02/08 13:16:20;;;;;;;5.05;3.35;;;6.40;99.90;;;6.53;78.83;99541.75;6101626;23;20197;-67
2024/02/08 13:18:55;;;;;;;11.93;3.90;;;6.40;99.90;;;6.29;80.29;99537.06;6101459;23;20489;-66
2024/02/08 13:21:25;;;;;;;4.70;2.47;;;6.20;99.90;;;6.05;81.87;99535.00;6100956;23;20490;-68
2024/02/08 13:23:55;;;;;;;6.07;3.58;;;6.00;99.90;;;6.11;82.50;99531.47;6100732;23;20160;-66
2024/02/08 13:26:25;;;;;;;8.35;2.40;;;6.00;99.90;;;6.18;82.04;99537.66;6074800;23;20164;-67
2024/02/08 13:29:04;;;;;;;4.93;3.40;;;6.00;99.90;;;6.25;78.02;99543.03;6110024;23;20246;-65
2024/02/08 13:31:35;;;;;;;2.75;2.45;;;6.10;99.90;;;6.12;78.59;99533.13;6111176;23;20168;-66
2024/02/08 13:34:09;;;;;;;7.60;4.28;;;6.00;99.90;;;6.14;78.36;99532.94;6110411;23;20159;-67
2024/02/08 13:36:43;;;;;;;10.38;2.67;;;6.10;99.90;;;6.34;78.57;99528.38;6110128;23;20198;-66
2024/02/08 13:39:12;;;;;;;2.47;2.28;;;6.20;99.90;;;6.19;78.36;99528.59;6110135;23;20185;-66
2024/02/08 13:41:46;;;;;;;3.97;1.90;;;6.20;99.90;;;6.11;78.19;99523.41;6111619;23;20171;-69
2024/02/08 13:44:15;;;;;;;1.95;1.85;;;6.20;99.90;;;6.18;79.43;99518.88;6108828;23;20163;-68
2024/02/08 13:46:44;;;;;;;2.10;0.90;;;6.10;99.90;;;6.22;79.62;99514.72;6107521;23;20672;-67
2024/02/08 13:49:15;;;;;;;2.10;1.27;;;6.10;99.90;;;6.25;78.95;99511.63;6106377;23;20466;-67
2024/02/08 13:51:45;;;;;;;2.80;2.22;;;6.20;99.90;;;6.16;78.62;99515.56;6100917;23;20513;-67
2024/02/08 13:54:16;;;;;;;3.13;1.42;;;6.20;99.90;;;6.01;79.19;99504.19;6097802;23;20554;-68
2024/02/08 13:56:45;;;;;;;2.38;1.67;;;6.10;99.90;;;5.97;79.16;99500.28;6096666;23;20258;-66